Newburgh, Indiana
Current Conditions -  °F | °C
As of 6:54 PM on Friday 24 Oct 2014 (Local Time) from KEVV Reporting Station
Few Clouds Few Clouds  
Wind Chill: 61°   Ceiling: Unl
Heat Index: 61°   Visibility: 10mi
Dew Point: 53°   Wind: 0mph
Humidity: 75%   Direction: NA
Pressure: 30.05"   Gusts: NA
Location:  37.95°N, 87.4°W
Report Text: KEVV 242354Z 00000KT 10SM FEW043 16/12 A3005 RMK AO2 SLP176 T01610117 10211 20161 53001
Loading
Personal Weather Stations






























Interactive Weather Map
Tropical Storm Tracking
New forecast layout! Learn more

10-Day Weather Forecast

Advertisements
Track Severe Weather on mobile